Time;durP1;ratioP1;P1;durP2;ratioP2;P2;SDS_P1;SDS_P2;PMS_P1;PMS_P2;Temp;Humidity;BMP_temperature;BMP_pressure;BME280_temperature;BME280_humidity;BME280_pressure;Samples;Min_cycle;Max_cycle;Signal;HPM_P1;HPM_P2
2021/04/16 00:00:20;;;;;;;2.72;1.38;;;;;;;;;;5084593;28;20036;-61
2021/04/16 00:02:46;;;;;;;3.53;2.28;;;;;;;;;;5082098;28;20363;-61
2021/04/16 00:05:11;;;;;;;1.98;1.10;;;;;;;;;;5079435;28;20035;-61
2021/04/16 00:07:37;;;;;;;3.97;2.30;;;;;;;;;;5083242;28;20070;-61
2021/04/16 00:10:05;;;;;;;18.30;12.45;;;;;;;;;;5082485;28;20028;-61
2021/04/16 00:12:30;;;;;;;7.10;4.88;;;;;;;;;;5080443;28;20387;-64
2021/04/16 00:14:55;;;;;;;5.78;2.53;;;;;;;;;;5079563;28;20029;-60
2021/04/16 00:17:21;;;;;;;5.57;2.47;;;;;;;;;;5078283;28;20036;-60
2021/04/16 00:19:46;;;;;;;2.05;1.65;;;;;;;;;;5071385;28;20025;-63
2021/04/16 00:22:11;;;;;;;2.05;1.35;;;;;;;;;;5077822;28;20375;-61
2021/04/16 00:24:37;;;;;;;9.63;2.75;;;;;;;;;;5075835;28;20024;-60
2021/04/16 00:27:02;;;;;;;5.80;1.27;;;;;;;;;;5078317;28;20028;-64
2021/04/16 00:29:27;;;;;;;1.83;1.17;;;;;;;;;;5081173;28;20093;-64
2021/04/16 00:31:55;;;;;;;3.17;1.73;;;;;;;;;;5075519;28;20028;-66
2021/04/16 00:34:21;;;;;;;2.88;1.33;;;;;;;;;;5076316;28;20025;-64
2021/04/16 00:36:47;;;;;;;2.55;1.67;;;;;;;;;;5077879;28;20479;-64
2021/04/16 00:39:12;;;;;;;2.97;1.65;;;;;;;;;;5081568;28;20012;-64
2021/04/16 00:41:38;;;;;;;4.35;1.00;;;;;;;;;;5077308;28;20417;-64
2021/04/16 00:44:03;;;;;;;2.13;1.58;;;;;;;;;;5084361;28;20028;-64
2021/04/16 00:46:29;;;;;;;3.22;1.75;;;;;;;;;;5082330;28;20039;-64
2021/04/16 00:48:58;;;;;;;7.75;1.77;;;;;;;;;;5081665;28;20027;-59
2021/04/16 00:51:39;;;;;;;2.95;1.85;;;;;;;;;;5078882;28;20481;-60
2021/04/16 00:54:05;;;;;;;3.37;1.70;;;;;;;;;;5075387;28;20044;-61
2021/04/16 00:56:31;;;;;;;3.65;1.98;;;;;;;;;;5080457;28;20032;-59
2021/04/16 00:58:56;;;;;;;2.50;1.67;;;;;;;;;;5076739;28;20027;-64
2021/04/16 01:01:22;;;;;;;2.88;1.63;;;;;;;;;;5075804;28;20056;-59
2021/04/16 01:03:48;;;;;;;1.38;0.88;;;;;;;;;;5076285;28;20024;-61
2021/04/16 01:06:13;;;;;;;3.63;1.95;;;;;;;;;;5082635;28;20112;-60
2021/04/16 01:08:39;;;;;;;5.20;1.23;;;;;;;;;;5077770;28;20025;-60
2021/04/16 01:11:09;;;;;;;2.58;1.45;;;;;;;;;;5078150;28;21061;-64
2021/04/16 01:13:36;;;;;;;2.10;0.85;;;;;;;;;;5079368;28;20336;-63
2021/04/16 01:16:09;;;;;;;2.90;1.83;;;;;;;;;;5075039;28;20043;-59
2021/04/16 01:18:36;;;;;;;1.88;1.50;;;;;;;;;;5076141;28;20067;-58
2021/04/16 01:21:04;;;;;;;3.28;2.25;;;;;;;;;;5072371;28;20032;-59
2021/04/16 01:23:32;;;;;;;5.43;2.10;;;;;;;;;;5074187;28;20033;-58
2021/04/16 01:25:58;;;;;;;2.40;1.60;;;;;;;;;;5077860;28;20035;-58
2021/04/16 01:28:24;;;;;;;4.93;1.67;;;;;;;;;;5077899;28;20034;-64
2021/04/16 01:31:10;;;;;;;5.93;2.67;;;;;;;;;;5075348;28;20040;-65
2021/04/16 01:33:36;;;;;;;2.65;1.65;;;;;;;;;;5070590;28;20146;-65
2021/04/16 01:36:02;;;;;;;3.33;1.90;;;;;;;;;;5075605;28;20109;-59
2021/04/16 01:38:28;;;;;;;3.13;1.85;;;;;;;;;;5077812;28;20830;-64
2021/04/16 01:40:54;;;;;;;2.45;1.70;;;;;;;;;;5074930;28;20024;-64
2021/04/16 01:43:22;;;;;;;3.15;1.92;;;;;;;;;;5074192;28;20379;-64
2021/04/16 01:45:47;;;;;;;1.95;1.48;;;;;;;;;;5076427;28;20068;-65
2021/04/16 01:48:13;;;;;;;4.20;2.17;;;;;;;;;;5077921;28;20446;-65
2021/04/16 01:50:38;;;;;;;11.82;2.17;;;;;;;;;;5075289;28;20020;-65
2021/04/16 01:53:04;;;;;;;3.70;1.58;;;;;;;;;;5072395;28;20024;-64
2021/04/16 01:55:29;;;;;;;2.40;1.38;;;;;;;;;;5073295;28;20033;-64
2021/04/16 01:57:54;;;;;;;2.97;1.98;;;;;;;;;;5077252;28;20082;-60
2021/04/16 02:00:24;;;;;;;3.15;1.35;;;;;;;;;;5075369;28;20043;-64
2021/04/16 02:02:49;;;;;;;1.15;0.90;;;;;;;;;;5070804;28;20028;-64
2021/04/16 02:05:15;;;;;;;5.30;2.22;;;;;;;;;;5075357;28;20031;-64
2021/04/16 02:07:40;;;;;;;3.90;1.08;;;;;;;;;;5074468;28;20463;-64
2021/04/16 02:10:07;;;;;;;5.78;2.05;;;;;;;;;;5072954;28;20027;-64
2021/04/16 02:12:33;;;;;;;3.75;1.40;;;;;;;;;;5075214;28;20019;-64
2021/04/16 02:14:58;;;;;;;3.47;2.03;;;;;;;;;;5077079;28;20020;-65
2021/04/16 02:17:26;;;;;;;2.05;1.23;;;;;;;;;;5048351;28;731139;-64
2021/04/16 02:19:51;;;;;;;3.58;1.52;;;;;;;;;;5079878;28;20419;-64
2021/04/16 02:22:19;;;;;;;1.88;1.45;;;;;;;;;;5074639;28;20054;-64
2021/04/16 02:24:44;;;;;;;5.68;2.20;;;;;;;;;;5075679;28;20025;-64
2021/04/16 02:27:10;;;;;;;2.45;1.98;;;;;;;;;;5078972;28;20064;-64
2021/04/16 02:29:35;;;;;;;2.58;1.10;;;;;;;;;;5075697;28;20371;-64
2021/04/16 02:32:01;;;;;;;6.50;1.42;;;;;;;;;;5081205;28;20379;-64
2021/04/16 02:34:27;;;;;;;3.85;1.48;;;;;;;;;;5072887;28;20021;-64
2021/04/16 02:36:54;;;;;;;7.22;2.50;;;;;;;;;;5079988;28;20024;-64
2021/04/16 02:39:19;;;;;;;6.50;1.45;;;;;;;;;;5081486;28;20111;-64
2021/04/16 02:41:46;;;;;;;3.25;1.77;;;;;;;;;;5078664;28;20115;-64
2021/04/16 02:44:11;;;;;;;3.97;1.77;;;;;;;;;;5080978;28;20027;-64
2021/04/16 02:46:37;;;;;;;2.55;1.80;;;;;;;;;;5077675;28;20028;-64
2021/04/16 02:49:03;;;;;;;5.82;1.75;;;;;;;;;;5080707;28;20417;-63
2021/04/16 02:51:28;;;;;;;2.10;1.08;;;;;;;;;;5079602;28;20362;-64
2021/04/16 02:53:53;;;;;;;1.67;1.33;;;;;;;;;;5078247;28;20053;-64
2021/04/16 02:56:19;;;;;;;6.90;2.78;;;;;;;;;;5078671;28;20020;-64
2021/04/16 02:58:44;;;;;;;7.22;3.53;;;;;;;;;;5074552;28;20028;-64
2021/04/16 03:01:09;;;;;;;3.33;1.77;;;;;;;;;;5075297;28;20043;-64
2021/04/16 03:03:35;;;;;;;2.88;1.60;;;;;;;;;;5078246;28;20459;-64
2021/04/16 03:06:01;;;;;;;5.32;1.98;;;;;;;;;;5079654;28;20375;-64
2021/04/16 03:08:26;;;;;;;4.15;1.42;;;;;;;;;;5077435;28;20661;-64
2021/04/16 03:10:52;;;;;;;4.03;1.60;;;;;;;;;;5072686;28;20099;-64
2021/04/16 03:13:17;;;;;;;10.32;2.92;;;;;;;;;;5080518;28;20032;-65
2021/04/16 03:15:43;;;;;;;2.50;2.00;;;;;;;;;;5078226;28;20130;-65
2021/04/16 03:18:08;;;;;;;2.20;1.50;;;;;;;;;;5080810;28;20139;-65
2021/04/16 03:20:33;;;;;;;6.05;1.73;;;;;;;;;;5078011;28;20039;-65
2021/04/16 03:22:59;;;;;;;5.10;2.38;;;;;;;;;;5079941;28;20103;-65
2021/04/16 03:25:24;;;;;;;3.13;1.75;;;;;;;;;;5079363;28;20035;-65
2021/04/16 03:27:49;;;;;;;5.38;2.15;;;;;;;;;;5074844;28;20024;-65
2021/04/16 03:30:17;;;;;;;6.97;2.80;;;;;;;;;;5080320;28;20016;-65
2021/04/16 03:32:42;;;;;;;6.60;1.60;;;;;;;;;;5077570;28;20031;-65
2021/04/16 03:35:08;;;;;;;5.88;3.05;;;;;;;;;;5080958;28;20020;-65
2021/04/16 03:37:33;;;;;;;4.40;2.45;;;;;;;;;;5077738;28;20491;-65
2021/04/16 03:39:58;;;;;;;5.03;2.35;;;;;;;;;;5080370;28;20085;-65
2021/04/16 03:42:24;;;;;;;2.83;1.55;;;;;;;;;;5079018;28;20031;-65
2021/04/16 03:44:49;;;;;;;3.33;2.90;;;;;;;;;;5077155;28;20032;-65
2021/04/16 03:47:16;;;;;;;4.07;2.15;;;;;;;;;;5080168;28;20024;-65
2021/04/16 03:49:42;;;;;;;3.85;2.47;;;;;;;;;;5077351;28;20112;-65
2021/04/16 03:52:07;;;;;;;1.95;1.38;;;;;;;;;;5080619;28;20441;-65
2021/04/16 03:54:33;;;;;;;2.33;1.42;;;;;;;;;;5077533;28;20024;-65
2021/04/16 03:56:59;;;;;;;4.45;1.80;;;;;;;;;;5079244;28;20048;-65
2021/04/16 03:59:25;;;;;;;1.92;1.42;;;;;;;;;;5078511;28;20020;-65
2021/04/16 04:01:51;;;;;;;2.08;1.50;;;;;;;;;;5078364;28;20035;-65
2021/04/16 04:04:17;;;;;;;1.58;0.98;;;;;;;;;;5080404;28;20093;-60
2021/04/16 04:06:42;;;;;;;5.82;2.15;;;;;;;;;;5074762;28;20459;-64
2021/04/16 04:09:07;;;;;;;1.83;1.63;;;;;;;;;;5078720;28;20137;-64
2021/04/16 04:11:33;;;;;;;4.53;1.80;;;;;;;;;;5077975;28;20722;-64
2021/04/16 04:13:59;;;;;;;2.33;1.83;;;;;;;;;;5078888;28;20040;-64
2021/04/16 04:16:25;;;;;;;1.92;1.30;;;;;;;;;;5076364;28;20069;-64
2021/04/16 04:18:50;;;;;;;13.13;1.60;;;;;;;;;;5072083;28;20491;-64
2021/04/16 04:21:16;;;;;;;2.00;1.52;;;;;;;;;;5073500;28;20063;-64
2021/04/16 04:23:41;;;;;;;3.75;1.75;;;;;;;;;;5077048;28;20086;-63
2021/04/16 04:26:06;;;;;;;1.98;1.45;;;;;;;;;;5076492;28;20032;-64
2021/04/16 04:28:32;;;;;;;1.70;1.25;;;;;;;;;;5074780;28;20131;-64
2021/04/16 04:30:57;;;;;;;5.63;1.50;;;;;;;;;;5069018;28;20486;-63
2021/04/16 04:33:22;;;;;;;2.90;2.38;;;;;;;;;;5077129;28;20396;-64
2021/04/16 04:35:48;;;;;;;2.58;1.60;;;;;;;;;;5077514;28;20024;-64
2021/04/16 04:38:13;;;;;;;3.80;2.08;;;;;;;;;;5079955;28;20036;-64
2021/04/16 04:40:38;;;;;;;5.45;2.22;;;;;;;;;;5078026;28;20028;-64
2021/04/16 04:43:04;;;;;;;4.97;2.38;;;;;;;;;;5079254;28;20103;-64
2021/04/16 04:45:29;;;;;;;6.22;2.53;;;;;;;;;;5076747;28;20035;-64
2021/04/16 04:47:55;;;;;;;4.88;2.47;;;;;;;;;;5078039;28;20379;-63
2021/04/16 04:50:22;;;;;;;5.30;2.50;;;;;;;;;;5078902;28;20047;-63
2021/04/16 04:52:47;;;;;;;7.85;2.45;;;;;;;;;;5072792;28;20036;-64
2021/04/16 04:55:14;;;;;;;5.30;2.70;;;;;;;;;;5076578;28;20357;-65
2021/04/16 04:57:40;;;;;;;2.45;1.95;;;;;;;;;;5074458;28;20029;-65
2021/04/16 05:00:06;;;;;;;6.88;1.85;;;;;;;;;;5079523;28;20028;-64
2021/04/16 05:02:32;;;;;;;6.03;1.80;;;;;;;;;;5072855;28;20016;-65
2021/04/16 05:04:57;;;;;;;3.40;1.42;;;;;;;;;;5074676;28;20096;-65
2021/04/16 05:07:22;;;;;;;3.83;1.75;;;;;;;;;;5078459;28;20031;-65
2021/04/16 05:09:48;;;;;;;2.97;1.83;;;;;;;;;;5079016;28;20017;-65
2021/04/16 05:12:13;;;;;;;3.20;2.33;;;;;;;;;;5083352;28;20048;-65
2021/04/16 05:14:38;;;;;;;3.45;1.38;;;;;;;;;;5080515;28;20035;-65
2021/04/16 05:17:04;;;;;;;3.53;1.95;;;;;;;;;;5082668;28;20491;-64
2021/04/16 05:19:29;;;;;;;9.32;1.65;;;;;;;;;;5080699;28;20032;-63
2021/04/16 05:21:57;;;;;;;6.45;2.33;;;;;;;;;;5081598;28;20032;-60
2021/04/16 05:24:22;;;;;;;3.38;1.42;;;;;;;;;;5085117;28;20020;-60
2021/04/16 05:26:47;;;;;;;3.08;1.88;;;;;;;;;;5077184;28;20055;-60
2021/04/16 05:29:13;;;;;;;5.00;2.60;;;;;;;;;;5082983;28;20359;-61
2021/04/16 05:31:38;;;;;;;4.90;3.05;;;;;;;;;;5080322;28;20032;-61
2021/04/16 05:34:04;;;;;;;4.90;2.80;;;;;;;;;;5078923;28;20028;-61
2021/04/16 05:36:30;;;;;;;4.63;2.75;;;;;;;;;;5080957;28;20037;-61
2021/04/16 05:38:55;;;;;;;5.10;2.42;;;;;;;;;;5080887;28;20085;-61
2021/04/16 05:41:20;;;;;;;6.13;2.53;;;;;;;;;;5082151;28;20028;-61
2021/04/16 05:43:46;;;;;;;3.70;2.03;;;;;;;;;;5079596;28;20028;-61
2021/04/16 05:46:12;;;;;;;11.43;3.60;;;;;;;;;;5082973;28;20028;-62
2021/04/16 05:48:37;;;;;;;20.60;2.50;;;;;;;;;;5079525;28;20024;-62
2021/04/16 05:51:03;;;;;;;4.40;3.25;;;;;;;;;;5082213;28;20135;-61
2021/04/16 05:53:28;;;;;;;4.10;3.53;;;;;;;;;;5076560;28;20029;-61
2021/04/16 05:55:55;;;;;;;5.57;3.70;;;;;;;;;;5079624;28;20056;-61
2021/04/16 05:58:21;;;;;;;9.73;3.55;;;;;;;;;;5073095;28;20032;-58
2021/04/16 06:00:46;;;;;;;9.82;4.85;;;;;;;;;;5077120;28;20047;-58
2021/04/16 06:03:11;;;;;;;14.50;4.50;;;;;;;;;;5083060;28;20443;-58
2021/04/16 06:05:37;;;;;;;5.00;3.45;;;;;;;;;;5079857;28;20025;-59
2021/04/16 06:08:03;;;;;;;6.93;4.38;;;;;;;;;;5081885;28;20103;-58
2021/04/16 06:10:28;;;;;;;9.05;4.60;;;;;;;;;;5080778;28;20020;-59
2021/04/16 06:12:54;;;;;;;18.92;6.18;;;;;;;;;;5079262;28;20118;-59
2021/04/16 06:15:20;;;;;;;8.93;5.18;;;;;;;;;;5081742;28;20024;-59
2021/04/16 06:17:46;;;;;;;9.70;5.22;;;;;;;;;;5078984;28;20045;-58
2021/04/16 06:20:12;;;;;;;10.30;4.65;;;;;;;;;;5081596;28;20390;-58
2021/04/16 06:22:38;;;;;;;6.70;3.83;;;;;;;;;;5075448;28;20048;-59
2021/04/16 06:25:04;;;;;;;6.35;4.70;;;;;;;;;;5079423;28;20074;-59
2021/04/16 06:27:30;;;;;;;6.03;3.45;;;;;;;;;;5075987;28;20020;-58
2021/04/16 06:29:55;;;;;;;8.98;6.25;;;;;;;;;;5077236;28;20087;-59
2021/04/16 06:32:21;;;;;;;8.55;5.53;;;;;;;;;;5076645;28;20020;-59
2021/04/16 06:34:46;;;;;;;5.75;4.68;;;;;;;;;;5075778;28;20009;-58
2021/04/16 06:37:11;;;;;;;7.82;5.80;;;;;;;;;;5077780;28;20027;-59
2021/04/16 06:39:37;;;;;;;7.18;5.80;;;;;;;;;;5074178;28;20090;-61
2021/04/16 06:42:04;;;;;;;10.93;6.32;;;;;;;;;;5077392;28;20017;-61
2021/04/16 06:44:31;;;;;;;14.10;6.80;;;;;;;;;;5075105;28;20459;-61
2021/04/16 06:47:09;;;;;;;5.25;4.18;;;;;;;;;;5076420;28;20032;-61
2021/04/16 06:49:37;;;;;;;10.98;7.88;;;;;;;;;;5073535;28;20059;-61
2021/04/16 06:52:08;;;;;;;9.40;5.85;;;;;;;;;;5077471;28;20024;-61
2021/04/16 06:54:45;;;;;;;7.13;4.00;;;;;;;;;;5075210;28;20465;-62
2021/04/16 06:57:21;;;;;;;8.13;6.35;;;;;;;;;;5074883;28;20032;-61
2021/04/16 06:59:48;;;;;;;6.97;5.90;;;;;;;;;;5075213;28;20024;-62
2021/04/16 07:02:16;;;;;;;10.05;5.68;;;;;;;;;;5076772;28;20034;-61
2021/04/16 07:04:43;;;;;;;6.65;4.45;;;;;;;;;;5075048;28;20016;-61
2021/04/16 07:07:11;;;;;;;13.70;4.07;;;;;;;;;;5074458;28;20107;-61
2021/04/16 07:09:39;;;;;;;7.97;5.57;;;;;;;;;;5074623;28;20020;-61
2021/04/16 07:12:10;;;;;;;10.27;4.68;;;;;;;;;;5078760;28;20028;-59
2021/04/16 07:14:38;;;;;;;5.27;3.47;;;;;;;;;;5078347;28;20597;-60
2021/04/16 07:17:08;;;;;;;13.07;5.80;;;;;;;;;;5080431;28;20052;-59
2021/04/16 07:19:33;;;;;;;7.70;5.03;;;;;;;;;;5087699;28;20111;-58
2021/04/16 07:22:00;;;;;;;5.75;3.65;;;;;;;;;;5080899;28;20112;-58
2021/04/16 07:24:25;;;;;;;4.13;2.95;;;;;;;;;;5081305;28;20024;-58
2021/04/16 07:26:53;;;;;;;18.20;11.15;;;;;;;;;;5079273;28;20081;-59
2021/04/16 07:29:38;;;;;;;29.30;19.65;;;;;;;;;;5076019;28;20035;-66
2021/04/16 07:32:04;;;;;;;11.48;5.10;;;;;;;;;;5079837;28;20035;-66
2021/04/16 07:34:29;;;;;;;7.57;5.53;;;;;;;;;;5082571;28;20032;-58
2021/04/16 07:36:55;;;;;;;10.00;5.22;;;;;;;;;;5085054;28;20033;-59
2021/04/16 07:39:31;;;;;;;6.68;4.00;;;;;;;;;;5087799;28;20370;-60
2021/04/16 07:42:09;;;;;;;19.63;4.20;;;;;;;;;;5085517;28;20408;-60
2021/04/16 07:44:36;;;;;;;16.95;3.60;;;;;;;;;;5086555;28;20024;-60
2021/04/16 07:47:15;;;;;;;2.83;1.77;;;;;;;;;;5086077;28;20510;-66
2021/04/16 07:49:55;;;;;;;7.03;2.58;;;;;;;;;;5074961;28;20451;-60
2021/04/16 07:52:25;;;;;;;8.45;2.38;;;;;;;;;;5071469;28;20111;-59
2021/04/16 07:55:03;;;;;;;3.20;1.93;;;;;;;;;;5053579;28;20020;-60
2021/04/16 07:57:29;;;;;;;3.35;2.17;;;;;;;;;;5078369;28;20104;-60
2021/04/16 07:59:59;;;;;;;5.03;3.03;;;;;;;;;;5080196;28;20370;-66
2021/04/16 08:02:32;;;;;;;3.88;2.33;;;;;;;;;;5074799;28;20036;-66
2021/04/16 08:04:57;;;;;;;8.45;3.00;;;;;;;;;;5086007;28;20431;-59
2021/04/16 08:07:28;;;;;;;6.07;2.45;;;;;;;;;;5076820;28;20066;-64
2021/04/16 08:09:55;;;;;;;2.92;1.90;;;;;;;;;;5072275;28;20020;-64
2021/04/16 08:12:21;;;;;;;4.78;2.75;;;;;;;;;;5079693;28;20459;-64
2021/04/16 08:14:47;;;;;;;11.10;2.80;;;;;;;;;;5078405;28;20032;-64
2021/04/16 08:17:24;;;;;;;4.55;2.05;;;;;;;;;;5077292;28;20048;-63
2021/04/16 08:19:50;;;;;;;13.52;2.47;;;;;;;;;;5073240;28;20100;-64
2021/04/16 08:22:29;;;;;;;5.13;2.78;;;;;;;;;;5080390;28;20435;-68
2021/04/16 08:25:04;;;;;;;5.63;1.83;;;;;;;;;;5078244;28;20090;-69
2021/04/16 08:27:35;;;;;;;5.18;2.15;;;;;;;;;;5076750;28;20101;-64
2021/04/16 08:30:00;;;;;;;;;;;;;;;;;;5072557;28;20021;-63
2021/04/16 08:32:46;;;;;;;11.17;1.80;;;;;;;;;;5069996;28;19917;-63
2021/04/16 08:35:23;;;;;;;3.47;1.52;;;;;;;;;;5046957;28;20408;-62
2021/04/16 08:37:55;;;;;;;3.90;2.08;;;;;;;;;;5071236;28;20020;-62
2021/04/16 08:40:29;;;;;;;1.52;0.80;;;;;;;;;;5055033;28;20047;-62
2021/04/16 08:42:55;;;;;;;10.15;3.03;;;;;;;;;;5068173;28;20029;-61
2021/04/16 08:45:23;;;;;;;11.30;4.00;;;;;;;;;;5069208;28;20019;-61
2021/04/16 08:47:52;;;;;;;5.35;3.45;;;;;;;;;;5073615;28;20039;-62
2021/04/16 08:50:17;;;;;;;3.92;2.97;;;;;;;;;;5070496;28;20062;-62
2021/04/16 08:52:54;;;;;;;7.88;3.05;;;;;;;;;;5072816;28;20021;-62
2021/04/16 08:55:22;;;;;;;6.63;2.03;;;;;;;;;;5071321;28;20012;-62
2021/04/16 08:57:55;;;;;;;5.70;2.95;;;;;;;;;;5072128;28;20056;-62
2021/04/16 09:00:24;;;;;;;4.82;3.38;;;;;;;;;;5077925;28;20012;-61
2021/04/16 09:02:51;;;;;;;2.08;1.00;;;;;;;;;;5085378;28;20039;-62
2021/04/16 09:05:21;;;;;;;2.85;2.10;;;;;;;;;;5083078;28;20459;-61
2021/04/16 09:07:52;;;;;;;2.78;1.58;;;;;;;;;;5076866;28;20440;-61
2021/04/16 09:10:17;;;;;;;6.88;4.47;;;;;;;;;;5070586;28;20022;-61
2021/04/16 09:12:44;;;;;;;6.22;2.58;;;;;;;;;;5076417;28;20028;-62
2021/04/16 09:15:18;;;;;;;11.82;5.05;;;;;;;;;;5084805;28;20146;-62
2021/04/16 09:17:52;;;;;;;6.82;2.92;;;;;;;;;;5084015;28;20048;-61
2021/04/16 09:20:44;;;;;;;2.15;1.48;;;;;;;;;;5067790;28;20439;-62
2021/04/16 09:23:38;;;;;;;5.13;2.17;;;;;;;;;;5066288;28;20040;-62
2021/04/16 09:26:04;;;;;;;12.40;3.10;;;;;;;;;;5054489;28;20040;-62
2021/04/16 09:28:54;;;;;;;4.80;2.70;;;;;;;;;;5076766;28;20029;-62
2021/04/16 09:31:23;;;;;;;12.85;2.10;;;;;;;;;;5063406;28;20412;-62
2021/04/16 09:33:48;;;;;;;3.83;2.63;;;;;;;;;;5070608;28;20020;-62
2021/04/16 09:36:26;;;;;;;1.50;1.38;;;;;;;;;;5070542;28;20044;-62
2021/04/16 09:38:51;;;;;;;4.50;2.17;;;;;;;;;;5069797;28;20028;-63
2021/04/16 09:41:20;;;;;;;4.82;3.30;;;;;;;;;;5076965;28;20498;-62
2021/04/16 09:43:46;;;;;;;2.92;0.90;;;;;;;;;;5082590;28;20108;-62
2021/04/16 09:46:26;;;;;;;6.35;2.60;;;;;;;;;;5071151;28;20394;-62
2021/04/16 09:48:52;;;;;;;7.32;6.60;;;;;;;;;;5073188;28;20028;-63
2021/04/16 09:51:27;;;;;;;4.63;2.22;;;;;;;;;;5068721;28;20028;-62
2021/04/16 09:54:15;;;;;;;4.18;1.98;;;;;;;;;;5067482;28;20024;-62
2021/04/16 09:56:59;;;;;;;4.80;2.25;;;;;;;;;;5069185;28;20032;-62
2021/04/16 09:59:30;;;;;;;7.75;1.75;;;;;;;;;;5067572;28;20020;-63
2021/04/16 10:01:55;;;;;;;;;;;;;;;;;;5069896;28;20090;-62
2021/04/16 10:04:39;;;;;;;3.87;2.03;;;;;;;;;;5080640;28;19908;-62
2021/04/16 10:07:07;;;;;;;25.55;3.08;;;;;;;;;;5073744;28;20293;-62
2021/04/16 10:09:33;;;;;;;3.08;2.03;;;;;;;;;;5079595;28;20432;-62
2021/04/16 10:12:09;;;;;;;12.00;5.82;;;;;;;;;;5083956;28;20108;-62
2021/04/16 10:14:36;;;;;;;6.00;2.45;;;;;;;;;;5080596;28;20028;-62
2021/04/16 10:17:03;;;;;;;6.10;2.30;;;;;;;;;;5075425;28;20056;-62
2021/04/16 10:19:33;;;;;;;4.10;1.60;;;;;;;;;;5072048;28;20032;-63
2021/04/16 10:22:09;;;;;;;5.25;2.33;;;;;;;;;;5072049;28;20040;-62
2021/04/16 11:12:29;;;;;;;3.13;2.30;;;;;;;;;;5071557;28;20402;-63
2021/04/16 12:41:20;;;;;;;2.40;1.60;;;;;;;;;;5075597;28;20109;-63
2021/04/16 12:43:46;;;;;;;2.75;1.08;;;;;;;;;;5081194;28;20450;-63
2021/04/16 12:46:14;;;;;;;8.70;2.53;;;;;;;;;;5075096;28;20032;-63
2021/04/16 12:48:39;;;;;;;20.55;2.67;;;;;;;;;;5074618;28;20028;-64
2021/04/16 12:51:04;;;;;;;4.53;1.45;;;;;;;;;;5076448;28;20020;-64
2021/04/16 12:53:29;;;;;;;5.55;1.08;;;;;;;;;;5072536;28;20039;-64
2021/04/16 12:55:55;;;;;;;2.00;1.17;;;;;;;;;;5076473;28;20104;-64
2021/04/16 12:58:22;;;;;;;3.85;2.15;;;;;;;;;;5074079;28;20032;-64
2021/04/16 13:00:48;;;;;;;8.15;1.95;;;;;;;;;;5082531;28;20352;-64
2021/04/16 13:03:15;;;;;;;6.03;3.78;;;;;;;;;;5083619;28;20043;-63
2021/04/16 13:05:41;;;;;;;2.38;1.75;;;;;;;;;;5082911;28;20585;-64
2021/04/16 13:08:07;;;;;;;2.58;2.10;;;;;;;;;;5072274;28;20039;-64
2021/04/16 13:10:32;;;;;;;5.40;3.08;;;;;;;;;;5069484;28;20016;-64
2021/04/16 13:12:57;;;;;;;3.30;2.08;;;;;;;;;;5066873;28;20483;-64
2021/04/16 13:15:23;;;;;;;5.03;2.42;;;;;;;;;;5070254;28;20124;-64
2021/04/16 13:17:50;;;;;;;2.50;1.45;;;;;;;;;;5070068;28;20041;-63
2021/04/16 13:20:17;;;;;;;3.25;1.35;;;;;;;;;;5068026;28;20017;-64
2021/04/16 13:22:42;;;;;;;2.83;1.63;;;;;;;;;;5066872;28;20024;-64
2021/04/16 13:25:08;;;;;;;2.70;0.95;;;;;;;;;;5068297;28;20027;-63
2021/04/16 13:27:33;;;;;;;1.40;0.88;;;;;;;;;;5068913;28;20029;-63
2021/04/16 13:29:59;;;;;;;2.63;1.92;;;;;;;;;;5069218;28;20028;-64
2021/04/16 13:32:26;;;;;;;3.83;2.03;;;;;;;;;;5068189;28;20016;-64
2021/04/16 13:34:56;;;;;;;1.70;1.13;;;;;;;;;;5069047;28;20040;-64
2021/04/16 13:37:24;;;;;;;2.08;1.33;;;;;;;;;;5067754;28;20141;-64
2021/04/16 13:39:49;;;;;;;2.58;2.00;;;;;;;;;;5069954;28;20611;-64
2021/04/16 13:42:15;;;;;;;0.90;0.68;;;;;;;;;;5070371;28;20029;-63
2021/04/16 13:44:41;;;;;;;2.45;1.52;;;;;;;;;;5069142;28;20080;-63
2021/04/16 13:47:08;;;;;;;4.82;1.92;;;;;;;;;;5070482;28;20447;-64
2021/04/16 13:49:35;;;;;;;3.00;1.67;;;;;;;;;;5069495;28;20028;-63
2021/04/16 13:52:00;;;;;;;2.63;1.30;;;;;;;;;;5070637;28;20150;-63
2021/04/16 13:54:26;;;;;;;1.88;0.93;;;;;;;;;;5069295;28;20115;-64
2021/04/16 13:56:52;;;;;;;11.93;1.95;;;;;;;;;;5070163;28;20036;-63
2021/04/16 13:59:17;;;;;;;4.25;1.67;;;;;;;;;;5069965;28;20077;-64
2021/04/16 14:01:43;;;;;;;4.35;1.02;;;;;;;;;;5069969;28;20036;-63
2021/04/16 14:04:09;;;;;;;2.72;1.50;;;;;;;;;;5071521;28;20041;-63
2021/04/16 14:06:36;;;;;;;3.55;1.02;;;;;;;;;;5068866;28;20033;-64
2021/04/16 14:09:13;;;;;;;2.20;1.55;;;;;;;;;;5069772;28;20415;-64
2021/04/16 14:11:38;;;;;;;1.92;1.13;;;;;;;;;;5068700;28;20039;-64
2021/04/16 14:14:06;;;;;;;1.45;0.77;;;;;;;;;;5070201;28;20029;-64
2021/04/16 14:16:33;;;;;;;3.20;1.42;;;;;;;;;;5068975;28;20032;-64
2021/04/16 14:18:59;;;;;;;3.28;1.40;;;;;;;;;;5069535;28;20071;-64
2021/04/16 14:21:26;;;;;;;1.52;1.02;;;;;;;;;;5068972;28;20043;-64
2021/04/16 14:23:52;;;;;;;1.75;0.90;;;;;;;;;;5069186;28;20100;-64
2021/04/16 14:26:18;;;;;;;2.95;2.08;;;;;;;;;;5069464;28;20169;-64
2021/04/16 14:28:44;;;;;;;4.28;1.52;;;;;;;;;;5068628;28;20024;-63
2021/04/16 14:31:10;;;;;;;3.78;1.20;;;;;;;;;;5069169;28;20027;-63
2021/04/16 14:33:36;;;;;;;4.43;2.05;;;;;;;;;;5067436;28;20032;-63
2021/04/16 14:36:02;;;;;;;1.02;0.60;;;;;;;;;;5070421;28;20070;-63
2021/04/16 14:38:30;;;;;;;2.03;1.30;;;;;;;;;;5069154;28;20322;-63
2021/04/16 14:40:55;;;;;;;1.70;0.85;;;;;;;;;;5068451;28;20112;-64
2021/04/16 14:43:21;;;;;;;4.45;2.42;;;;;;;;;;5066133;28;20047;-64
2021/04/16 14:45:48;;;;;;;8.68;5.82;;;;;;;;;;5068021;28;20020;-63
2021/04/16 14:48:14;;;;;;;53.95;30.88;;;;;;;;;;5069023;28;20070;-63
2021/04/16 14:50:39;;;;;;;3.70;2.60;;;;;;;;;;5068372;28;20028;-64
2021/04/16 14:53:08;;;;;;;4.15;1.83;;;;;;;;;;5069362;28;20115;-63
2021/04/16 14:55:35;;;;;;;4.00;1.90;;;;;;;;;;5067640;28;20124;-65
2021/04/16 14:58:01;;;;;;;4.50;1.30;;;;;;;;;;5067860;28;20695;-64
2021/04/16 15:00:27;;;;;;;7.15;1.67;;;;;;;;;;5068026;28;20017;-64
2021/04/16 15:02:53;;;;;;;3.90;1.90;;;;;;;;;;5067659;28;20024;-63
2021/04/16 15:05:19;;;;;;;12.15;2.15;;;;;;;;;;5067036;28;20044;-64
2021/04/16 15:07:55;;;;;;;6.95;2.90;;;;;;;;;;5068234;28;20067;-64
2021/04/16 15:10:26;;;;;;;4.57;1.85;;;;;;;;;;5068342;28;20452;-64
2021/04/16 15:12:51;;;;;;;7.38;3.00;;;;;;;;;;5067915;28;20519;-64
2021/04/16 15:15:26;;;;;;;7.68;1.52;;;;;;;;;;5068548;28;20038;-64
2021/04/16 15:17:51;;;;;;;10.18;1.27;;;;;;;;;;5067907;28;20117;-64
2021/04/16 15:20:17;;;;;;;6.90;2.30;;;;;;;;;;5067361;28;20025;-63
2021/04/16 15:22:42;;;;;;;16.92;3.38;;;;;;;;;;5066013;28;20024;-63
2021/04/16 15:25:08;;;;;;;15.65;2.65;;;;;;;;;;5068979;28;20823;-63
2021/04/16 15:27:46;;;;;;;1.75;0.80;;;;;;;;;;5067630;28;20020;-63
2021/04/16 15:30:23;;;;;;;4.07;2.75;;;;;;;;;;5066677;28;20648;-64
2021/04/16 15:32:49;;;;;;;2.10;1.45;;;;;;;;;;5067453;28;20025;-64
2021/04/16 15:46:02;;;;;;;5.07;2.45;;;;;;;;;;5068031;28;20039;-64
2021/04/16 15:48:29;;;;;;;1.95;1.00;;;;;;;;;;5062796;28;20037;-64
2021/04/16 15:50:59;;;;;;;2.42;1.48;;;;;;;;;;5066686;28;20416;-64
2021/04/16 15:53:25;;;;;;;13.75;3.17;;;;;;;;;;5062539;28;20138;-64
2021/04/16 15:55:51;;;;;;;2.72;1.73;;;;;;;;;;5067657;28;20494;-65
2021/04/16 15:58:18;;;;;;;14.15;9.43;;;;;;;;;;5066553;28;20028;-65
2021/04/16 16:00:45;;;;;;;23.88;13.10;;;;;;;;;;5067510;28;20039;-64
2021/04/16 16:03:10;;;;;;;6.60;3.17;;;;;;;;;;5068734;28;20581;-64
2021/04/16 16:05:37;;;;;;;4.82;2.97;;;;;;;;;;5066514;28;20097;-64
2021/04/16 16:08:02;;;;;;;6.47;2.60;;;;;;;;;;5067566;28;20078;-65
2021/04/16 16:10:28;;;;;;;5.55;4.28;;;;;;;;;;5066783;28;20458;-65
2021/04/16 16:12:58;;;;;;;10.13;6.78;;;;;;;;;;5067164;28;20024;-66
2021/04/16 16:15:26;;;;;;;7.88;5.88;;;;;;;;;;5060768;28;20030;-63
2021/04/16 16:17:52;;;;;;;18.27;6.47;;;;;;;;;;5067102;28;20056;-63
2021/04/16 16:20:18;;;;;;;5.20;3.70;;;;;;;;;;5067400;28;20064;-64
2021/04/16 16:22:43;;;;;;;91.30;73.95;;;;;;;;;;5064943;28;20055;-64
2021/04/16 16:25:10;;;;;;;40.15;28.20;;;;;;;;;;5066442;28;20032;-64
2021/04/16 16:27:36;;;;;;;15.68;7.70;;;;;;;;;;5065141;28;20029;-64
2021/04/16 16:30:04;;;;;;;12.50;8.20;;;;;;;;;;5068393;28;20031;-63
2021/04/16 16:32:30;;;;;;;17.85;10.70;;;;;;;;;;5065650;28;20024;-63
2021/04/16 16:34:56;;;;;;;7.32;2.67;;;;;;;;;;5068964;28;20558;-63
2021/04/16 16:37:22;;;;;;;5.35;3.10;;;;;;;;;;5065376;28;20020;-63
2021/04/16 16:39:48;;;;;;;12.25;7.13;;;;;;;;;;5066944;28;20017;-63
2021/04/16 16:42:25;;;;;;;13.45;2.90;;;;;;;;;;5067303;28;20028;-63
2021/04/16 16:44:51;;;;;;;7.65;2.00;;;;;;;;;;5067033;28;20490;-63
2021/04/16 16:47:16;;;;;;;3.38;1.60;;;;;;;;;;5067219;28;20028;-63
2021/04/16 16:49:41;;;;;;;6.25;2.83;;;;;;;;;;5066482;28;20606;-63
2021/04/16 16:52:07;;;;;;;2.33;1.10;;;;;;;;;;5067586;28;20115;-63
2021/04/16 16:54:32;;;;;;;6.80;1.85;;;;;;;;;;5066525;28;20139;-63
2021/04/16 16:56:58;;;;;;;11.02;2.30;;;;;;;;;;5065960;28;20120;-62
2021/04/16 16:59:25;;;;;;;11.02;5.38;;;;;;;;;;5064580;28;20056;-63
2021/04/16 17:01:50;;;;;;;9.77;2.80;;;;;;;;;;5067404;28;20036;-63
2021/04/16 17:04:16;;;;;;;8.10;4.07;;;;;;;;;;5067822;28;20102;-63
2021/04/16 17:06:41;;;;;;;6.80;1.98;;;;;;;;;;5069685;28;20086;-62